BAW7CP EGLL-KORD
Flight info
| Callsign | BAW7CP |
|---|---|
| Flight time | N/A |
| Altitude | 34000 |
| Route | CPT L9 BUCGO DCT FELCA DCT OFSOX DCT SLANY DCT DOGAL/M082F360 DCT 5420N DCT 5330N DCT H5140 DCT 5050N DCT ELSIR/N0473F360 N414A ANATI/N0487F400 DCT KAPUX DCT HOCKE DCT FNT WYNDE3 |
| Aircraft | B772/H-SDE2E3FGHIJ5LORVWXY/LB1D1 |
Departure
| Time | 2026-05-07 09:25 |
|---|---|
| Airport | London Heathrow Airport (EGLL) |
Arrival
| Time | N/A |
|---|---|
| Airport | Chicago O'Hare International Airport (KORD) |
| Time | Latitude | Longitude | Altitude | Speed | Heading |
|---|---|---|---|---|---|
| 2026-05-07 09:09 | 51.46980 | -0.48023 | 90 ft | 0 kts | 270° |
| 2026-05-07 09:12 | 51.46980 | -0.48011 | 90 ft | 4 kts | 270° |
| 2026-05-07 09:13 | 51.46980 | -0.47968 | 91 ft | 4 kts | 270° |
| 2026-05-07 09:13 | 51.46980 | -0.47925 | 92 ft | 3 kts | 270° |
| 2026-05-07 09:13 | 51.46982 | -0.47892 | 92 ft | 4 kts | 239° |
| 2026-05-07 09:13 | 51.47000 | -0.47870 | 92 ft | 4 kts | 185° |
| 2026-05-07 09:14 | 51.47025 | -0.47869 | 91 ft | 4 kts | 180° |
| 2026-05-07 09:14 | 51.47035 | -0.47869 | 90 ft | 0 kts | 180° |
| 2026-05-07 09:19 | 51.47003 | -0.47869 | 92 ft | 9 kts | 180° |
| 2026-05-07 09:19 | 51.46949 | -0.47868 | 90 ft | 8 kts | 179° |
| 2026-05-07 09:19 | 51.46896 | -0.47868 | 90 ft | 8 kts | 179° |
| 2026-05-07 09:19 | 51.46843 | -0.47867 | 90 ft | 8 kts | 179° |
| 2026-05-07 09:20 | 51.46790 | -0.47867 | 90 ft | 8 kts | 179° |
| 2026-05-07 09:20 | 51.46737 | -0.47866 | 92 ft | 8 kts | 179° |
| 2026-05-07 09:20 | 51.46684 | -0.47867 | 94 ft | 8 kts | 187° |
| 2026-05-07 09:20 | 51.46655 | -0.47932 | 95 ft | 8 kts | 259° |
| 2026-05-07 09:21 | 51.46654 | -0.48019 | 91 ft | 8 kts | 270° |
| 2026-05-07 09:21 | 51.46654 | -0.48105 | 92 ft | 8 kts | 269° |
| 2026-05-07 09:21 | 51.46653 | -0.48192 | 91 ft | 8 kts | 269° |
| 2026-05-07 09:21 | 51.46653 | -0.48278 | 92 ft | 8 kts | 269° |
| 2026-05-07 09:22 | 51.46652 | -0.48366 | 91 ft | 10 kts | 269° |
| 2026-05-07 09:22 | 51.46652 | -0.48504 | 91 ft | 13 kts | 269° |
| 2026-05-07 09:22 | 51.46651 | -0.48640 | 92 ft | 8 kts | 269° |
| 2026-05-07 09:22 | 51.46645 | -0.48721 | 94 ft | 7 kts | 243° |
| 2026-05-07 09:23 | 51.46604 | -0.48766 | 94 ft | 7 kts | 200° |
| 2026-05-07 09:23 | 51.46554 | -0.48786 | 92 ft | 7 kts | 188° |
| 2026-05-07 09:23 | 51.46505 | -0.48771 | 95 ft | 7 kts | 151° |
| 2026-05-07 09:23 | 51.46477 | -0.48712 | 95 ft | 5 kts | 106° |
| 2026-05-07 09:24 | 51.46477 | -0.48676 | 93 ft | 3 kts | 89° |
| 2026-05-07 09:24 | 51.46478 | -0.48569 | 91 ft | 26 kts | 89° |
| 2026-05-07 09:24 | 51.46479 | -0.47891 | 93 ft | 98 kts | 89° |
| 2026-05-07 09:24 | 51.46485 | -0.46439 | 96 ft | 160 kts | 90° |
| 2026-05-07 09:25 | 51.46499 | -0.44466 | 499 ft | 180 kts | 90° |
| 2026-05-07 09:25 | 51.46553 | -0.42444 | 1356 ft | 183 kts | 89° |
| 2026-05-07 09:25 | 51.46483 | -0.40404 | 2013 ft | 191 kts | 109° |
| 2026-05-07 09:25 | 51.45680 | -0.38620 | 2210 ft | 210 kts | 146° |
| 2026-05-07 09:26 | 51.44276 | -0.37867 | 2510 ft | 225 kts | 180° |
| 2026-05-07 09:26 | 51.42714 | -0.38399 | 2837 ft | 239 kts | 200° |
| 2026-05-07 09:26 | 51.41128 | -0.39354 | 3329 ft | 247 kts | 201° |
| 2026-05-07 09:26 | 51.39470 | -0.40329 | 3927 ft | 254 kts | 201° |
| 2026-05-07 09:27 | 51.37849 | -0.41395 | 4462 ft | 257 kts | 213° |
| 2026-05-07 09:27 | 51.36594 | -0.43416 | 5032 ft | 259 kts | 242° |
| 2026-05-07 09:27 | 51.36371 | -0.49042 | 6048 ft | 262 kts | 283° |
| 2026-05-07 09:28 | 51.36844 | -0.51860 | 6585 ft | 264 kts | 285° |
| 2026-05-07 09:28 | 51.37357 | -0.54699 | 7153 ft | 268 kts | 285° |
| 2026-05-07 09:28 | 51.37879 | -0.57582 | 7702 ft | 271 kts | 285° |
| 2026-05-07 09:28 | 51.38408 | -0.60492 | 8292 ft | 273 kts | 285° |
| 2026-05-07 09:29 | 51.38943 | -0.63425 | 8828 ft | 277 kts | 286° |
| 2026-05-07 09:29 | 51.39485 | -0.66424 | 9332 ft | 282 kts | 286° |
| 2026-05-07 09:29 | 51.40029 | -0.69465 | 9844 ft | 286 kts | 286° |
| 2026-05-07 09:29 | 51.40575 | -0.72551 | 10278 ft | 292 kts | 285° |
| 2026-05-07 09:30 | 51.41144 | -0.75778 | 10406 ft | 310 kts | 285° |
| 2026-05-07 09:30 | 51.41746 | -0.79198 | 10539 ft | 327 kts | 285° |
| 2026-05-07 09:30 | 51.42370 | -0.82744 | 10762 ft | 343 kts | 285° |
| 2026-05-07 09:30 | 51.43028 | -0.86472 | 11233 ft | 352 kts | 285° |
| 2026-05-07 09:31 | 51.43704 | -0.90285 | 11900 ft | 358 kts | 285° |
| 2026-05-07 09:31 | 51.44387 | -0.94129 | 12730 ft | 360 kts | 285° |
| 2026-05-07 09:31 | 51.45077 | -0.97987 | 13579 ft | 363 kts | 285° |
| 2026-05-07 09:31 | 51.45795 | -1.01911 | 14272 ft | 368 kts | 285° |
| 2026-05-07 09:32 | 51.46524 | -1.05866 | 14972 ft | 372 kts | 285° |
| 2026-05-07 09:32 | 51.47263 | -1.09857 | 15697 ft | 375 kts | 285° |
| 2026-05-07 09:32 | 51.48010 | -1.13879 | 16415 ft | 377 kts | 285° |
| 2026-05-07 09:32 | 51.48764 | -1.17932 | 17085 ft | 381 kts | 285° |
| 2026-05-07 09:33 | 51.49526 | -1.22036 | 17741 ft | 385 kts | 285° |
| 2026-05-07 09:33 | 51.50293 | -1.26174 | 18411 ft | 388 kts | 285° |
| 2026-05-07 09:33 | 51.51063 | -1.30334 | 18982 ft | 390 kts | 285° |
| 2026-05-07 09:33 | 51.51839 | -1.34526 | 19527 ft | 394 kts | 285° |
| 2026-05-07 09:34 | 51.52619 | -1.38754 | 20068 ft | 397 kts | 285° |
| 2026-05-07 09:34 | 51.53557 | -1.42943 | 20548 ft | 401 kts | 294° |
| 2026-05-07 09:34 | 51.54950 | -1.46779 | 21039 ft | 406 kts | 304° |
| 2026-05-07 09:34 | 51.56747 | -1.50378 | 21570 ft | 409 kts | 310° |
| 2026-05-07 09:35 | 51.58692 | -1.53670 | 22028 ft | 414 kts | 315° |
| 2026-05-07 09:35 | 51.60907 | -1.56679 | 22508 ft | 418 kts | 321° |
| 2026-05-07 09:35 | 51.63225 | -1.59532 | 23001 ft | 421 kts | 322° |
| 2026-05-07 09:35 | 51.65554 | -1.62430 | 23489 ft | 425 kts | 321° |
| 2026-05-07 09:36 | 51.67853 | -1.65418 | 23890 ft | 424 kts | 316° |
| 2026-05-07 09:36 | 51.69709 | -1.69120 | 24127 ft | 429 kts | 298° |
| 2026-05-07 09:36 | 51.70811 | -1.73583 | 24529 ft | 429 kts | 282° |
| 2026-05-07 09:36 | 51.71217 | -1.78360 | 24977 ft | 429 kts | 274° |
| 2026-05-07 09:37 | 51.71478 | -1.83168 | 25369 ft | 432 kts | 275° |
| 2026-05-07 09:37 | 51.71793 | -1.88017 | 25743 ft | 436 kts | 275° |
| 2026-05-07 09:37 | 51.72136 | -1.92892 | 26118 ft | 440 kts | 276° |
| 2026-05-07 09:37 | 51.72490 | -1.97792 | 26507 ft | 443 kts | 276° |
| 2026-05-07 09:38 | 51.72843 | -2.02702 | 26881 ft | 446 kts | 276° |
| 2026-05-07 09:38 | 51.73194 | -2.07690 | 27267 ft | 449 kts | 276° |
| 2026-05-07 09:38 | 51.73543 | -2.12700 | 27678 ft | 451 kts | 276° |